sensor_id;sensor_type;location;lat;lon;timestamp;temperature;humidity
21387;DHT22;10854;45.922;6.716;2023-04-25T00:00:07;9.00;99.90
21387;DHT22;10854;45.922;6.716;2023-04-25T00:02:38;9.00;99.90
21387;DHT22;10854;45.922;6.716;2023-04-25T00:05:07;8.90;99.90
21387;DHT22;10854;45.922;6.716;2023-04-25T00:07:35;8.90;99.90
21387;DHT22;10854;45.922;6.716;2023-04-25T00:10:04;8.90;99.90
21387;DHT22;10854;45.922;6.716;2023-04-25T00:12:33;8.90;99.90
21387;DHT22;10854;45.922;6.716;2023-04-25T00:15:02;8.90;99.90
21387;DHT22;10854;45.922;6.716;2023-04-25T00:17:30;8.90;99.90
21387;DHT22;10854;45.922;6.716;2023-04-25T00:19:59;8.90;99.90
21387;DHT22;10854;45.922;6.716;2023-04-25T00:22:27;8.90;99.90
21387;DHT22;10854;45.922;6.716;2023-04-25T00:24:56;8.80;99.90
21387;DHT22;10854;45.922;6.716;2023-04-25T00:27:27;8.80;99.90
21387;DHT22;10854;45.922;6.716;2023-04-25T00:29:56;8.80;99.90
21387;DHT22;10854;45.922;6.716;2023-04-25T00:32:24;8.80;99.90
21387;DHT22;10854;45.922;6.716;2023-04-25T00:34:52;8.80;99.90
21387;DHT22;10854;45.922;6.716;2023-04-25T00:37:21;8.80;99.90
21387;DHT22;10854;45.922;6.716;2023-04-25T00:39:50;8.80;99.90
21387;DHT22;10854;45.922;6.716;2023-04-25T00:42:19;8.80;99.90
21387;DHT22;10854;45.922;6.716;2023-04-25T00:44:47;8.80;99.90
21387;DHT22;10854;45.922;6.716;2023-04-25T00:47:16;8.80;99.90
21387;DHT22;10854;45.922;6.716;2023-04-25T00:49:45;8.80;99.90
21387;DHT22;10854;45.922;6.716;2023-04-25T00:52:13;8.70;99.90
21387;DHT22;10854;45.922;6.716;2023-04-25T00:54:41;8.70;99.90
21387;DHT22;10854;45.922;6.716;2023-04-25T00:57:10;8.70;99.90
21387;DHT22;10854;45.922;6.716;2023-04-25T00:59:40;8.70;99.90
21387;DHT22;10854;45.922;6.716;2023-04-25T01:02:13;8.70;99.90
21387;DHT22;10854;45.922;6.716;2023-04-25T01:04:41;8.70;99.90
21387;DHT22;10854;45.922;6.716;2023-04-25T01:07:10;8.70;99.90
21387;DHT22;10854;45.922;6.716;2023-04-25T01:09:39;8.60;99.90
21387;DHT22;10854;45.922;6.716;2023-04-25T01:12:08;8.60;99.90
21387;DHT22;10854;45.922;6.716;2023-04-25T01:14:37;8.70;99.90
21387;DHT22;10854;45.922;6.716;2023-04-25T01:17:06;8.70;99.90
21387;DHT22;10854;45.922;6.716;2023-04-25T01:19:35;8.70;99.90
21387;DHT22;10854;45.922;6.716;2023-04-25T01:22:04;8.70;99.90
21387;DHT22;10854;45.922;6.716;2023-04-25T01:24:33;8.70;99.90
21387;DHT22;10854;45.922;6.716;2023-04-25T01:27:02;8.70;99.90
21387;DHT22;10854;45.922;6.716;2023-04-25T01:29:33;8.80;99.90
21387;DHT22;10854;45.922;6.716;2023-04-25T01:32:02;8.80;99.90
21387;DHT22;10854;45.922;6.716;2023-04-25T01:34:31;8.80;99.90
21387;DHT22;10854;45.922;6.716;2023-04-25T01:37:00;8.80;99.90
21387;DHT22;10854;45.922;6.716;2023-04-25T01:39:32;8.90;99.90
21387;DHT22;10854;45.922;6.716;2023-04-25T01:42:00;8.90;99.90
21387;DHT22;10854;45.922;6.716;2023-04-25T01:44:29;8.90;99.90
21387;DHT22;10854;45.922;6.716;2023-04-25T01:46:58;8.90;99.90
21387;DHT22;10854;45.922;6.716;2023-04-25T01:49:27;8.90;99.90
21387;DHT22;10854;45.922;6.716;2023-04-25T01:51:56;8.90;99.90
21387;DHT22;10854;45.922;6.716;2023-04-25T01:54:26;8.90;99.90
21387;DHT22;10854;45.922;6.716;2023-04-25T01:56:57;8.90;99.90
21387;DHT22;10854;45.922;6.716;2023-04-25T01:59:25;8.90;99.90
21387;DHT22;10854;45.922;6.716;2023-04-25T02:01:55;8.90;99.90
21387;DHT22;10854;45.922;6.716;2023-04-25T02:04:24;8.90;99.90
21387;DHT22;10854;45.922;6.716;2023-04-25T02:06:52;8.90;99.90
21387;DHT22;10854;45.922;6.716;2023-04-25T02:09:21;8.90;99.90
21387;DHT22;10854;45.922;6.716;2023-04-25T02:11:49;8.90;99.90
21387;DHT22;10854;45.922;6.716;2023-04-25T02:14:19;8.90;99.90
21387;DHT22;10854;45.922;6.716;2023-04-25T02:16:49;8.80;99.90
21387;DHT22;10854;45.922;6.716;2023-04-25T02:19:19;8.80;99.90
21387;DHT22;10854;45.922;6.716;2023-04-25T02:21:48;8.80;99.90
21387;DHT22;10854;45.922;6.716;2023-04-25T02:24:16;8.80;99.90
21387;DHT22;10854;45.922;6.716;2023-04-25T02:26:46;8.80;99.90
21387;DHT22;10854;45.922;6.716;2023-04-25T02:29:14;8.90;99.90
21387;DHT22;10854;45.922;6.716;2023-04-25T02:31:44;9.00;99.90
21387;DHT22;10854;45.922;6.716;2023-04-25T02:34:13;9.00;99.90
21387;DHT22;10854;45.922;6.716;2023-04-25T02:36:41;9.00;99.90
21387;DHT22;10854;45.922;6.716;2023-04-25T02:39:09;9.00;99.90
21387;DHT22;10854;45.922;6.716;2023-04-25T02:41:38;9.00;99.90
21387;DHT22;10854;45.922;6.716;2023-04-25T02:44:07;9.00;99.90
21387;DHT22;10854;45.922;6.716;2023-04-25T02:46:35;9.00;99.90
21387;DHT22;10854;45.922;6.716;2023-04-25T02:49:06;9.00;99.90
21387;DHT22;10854;45.922;6.716;2023-04-25T02:51:34;8.90;99.90
21387;DHT22;10854;45.922;6.716;2023-04-25T02:54:03;8.90;99.90
21387;DHT22;10854;45.922;6.716;2023-04-25T02:56:31;8.90;99.90
21387;DHT22;10854;45.922;6.716;2023-04-25T02:59:00;8.90;99.90
21387;DHT22;10854;45.922;6.716;2023-04-25T03:01:28;8.90;99.90
21387;DHT22;10854;45.922;6.716;2023-04-25T03:03:57;8.90;99.90
21387;DHT22;10854;45.922;6.716;2023-04-25T03:06:25;8.90;99.90
21387;DHT22;10854;45.922;6.716;2023-04-25T03:08:54;8.90;99.90
21387;DHT22;10854;45.922;6.716;2023-04-25T03:11:25;8.90;99.90
21387;DHT22;10854;45.922;6.716;2023-04-25T03:13:53;9.00;99.90
21387;DHT22;10854;45.922;6.716;2023-04-25T03:16:22;8.90;99.90
21387;DHT22;10854;45.922;6.716;2023-04-25T03:18:51;8.90;99.90
21387;DHT22;10854;45.922;6.716;2023-04-25T03:21:19;8.90;99.90
21387;DHT22;10854;45.922;6.716;2023-04-25T03:23:47;8.90;99.90
21387;DHT22;10854;45.922;6.716;2023-04-25T03:26:27;8.80;99.90
21387;DHT22;10854;45.922;6.716;2023-04-25T03:28:56;8.80;99.90
21387;DHT22;10854;45.922;6.716;2023-04-25T03:31:24;8.80;99.90
21387;DHT22;10854;45.922;6.716;2023-04-25T03:33:53;8.90;99.90
21387;DHT22;10854;45.922;6.716;2023-04-25T03:36:23;8.90;99.90
21387;DHT22;10854;45.922;6.716;2023-04-25T03:38:53;9.00;99.90
21387;DHT22;10854;45.922;6.716;2023-04-25T03:41:21;8.90;99.90
21387;DHT22;10854;45.922;6.716;2023-04-25T03:43:49;8.90;99.90
21387;DHT22;10854;45.922;6.716;2023-04-25T03:46:19;8.80;99.90
21387;DHT22;10854;45.922;6.716;2023-04-25T03:48:47;8.70;99.90
21387;DHT22;10854;45.922;6.716;2023-04-25T03:51:17;8.60;99.90
21387;DHT22;10854;45.922;6.716;2023-04-25T03:53:50;8.50;99.90
21387;DHT22;10854;45.922;6.716;2023-04-25T03:56:19;8.30;99.90
21387;DHT22;10854;45.922;6.716;2023-04-25T03:58:51;8.20;99.90
21387;DHT22;10854;45.922;6.716;2023-04-25T04:01:20;8.00;99.90
21387;DHT22;10854;45.922;6.716;2023-04-25T04:03:49;8.00;99.90
21387;DHT22;10854;45.922;6.716;2023-04-25T04:06:17;7.90;99.90
21387;DHT22;10854;45.922;6.716;2023-04-25T04:08:50;7.80;99.90
21387;DHT22;10854;45.922;6.716;2023-04-25T04:11:20;7.70;99.90
21387;DHT22;10854;45.922;6.716;2023-04-25T04:13:49;7.60;99.90
21387;DHT22;10854;45.922;6.716;2023-04-25T04:16:20;7.50;99.90
21387;DHT22;10854;45.922;6.716;2023-04-25T04:18:48;7.40;99.90
21387;DHT22;10854;45.922;6.716;2023-04-25T04:21:18;7.40;99.90
21387;DHT22;10854;45.922;6.716;2023-04-25T04:23:46;7.30;99.90
21387;DHT22;10854;45.922;6.716;2023-04-25T04:26:16;7.30;99.90
21387;DHT22;10854;45.922;6.716;2023-04-25T04:28:45;7.20;99.90
21387;DHT22;10854;45.922;6.716;2023-04-25T04:31:19;7.20;99.90
21387;DHT22;10854;45.922;6.716;2023-04-25T04:33:49;7.20;99.90
21387;DHT22;10854;45.922;6.716;2023-04-25T04:36:21;7.20;99.90
21387;DHT22;10854;45.922;6.716;2023-04-25T04:38:50;7.20;99.90
21387;DHT22;10854;45.922;6.716;2023-04-25T04:41:19;7.20;99.90
21387;DHT22;10854;45.922;6.716;2023-04-25T04:43:47;7.20;99.90
21387;DHT22;10854;45.922;6.716;2023-04-25T04:46:16;7.20;99.90
21387;DHT22;10854;45.922;6.716;2023-04-25T04:48:46;7.30;99.90
21387;DHT22;10854;45.922;6.716;2023-04-25T04:51:15;7.30;99.90
21387;DHT22;10854;45.922;6.716;2023-04-25T04:53:45;7.30;99.90
21387;DHT22;10854;45.922;6.716;2023-04-25T04:56:24;7.40;99.90
21387;DHT22;10854;45.922;6.716;2023-04-25T04:59:03;7.40;99.90
21387;DHT22;10854;45.922;6.716;2023-04-25T05:01:31;7.40;99.90
21387;DHT22;10854;45.922;6.716;2023-04-25T05:04:03;7.50;99.90
21387;DHT22;10854;45.922;6.716;2023-04-25T05:06:33;7.50;99.90
21387;DHT22;10854;45.922;6.716;2023-04-25T05:09:02;7.50;99.90
21387;DHT22;10854;45.922;6.716;2023-04-25T05:11:31;7.50;99.90
21387;DHT22;10854;45.922;6.716;2023-04-25T05:14:00;7.50;99.90
21387;DHT22;10854;45.922;6.716;2023-04-25T05:17:22;7.60;99.90
21387;DHT22;10854;45.922;6.716;2023-04-25T05:20:18;7.70;99.90
21387;DHT22;10854;45.922;6.716;2023-04-25T05:23:26;7.60;99.90
21387;DHT22;10854;45.922;6.716;2023-04-25T05:26:57;7.60;99.90
21387;DHT22;10854;45.922;6.716;2023-04-25T05:29:26;7.60;99.90
21387;DHT22;10854;45.922;6.716;2023-04-25T05:31:56;7.60;99.90
21387;DHT22;10854;45.922;6.716;2023-04-25T05:34:26;7.50;99.90
21387;DHT22;10854;45.922;6.716;2023-04-25T05:36:55;7.50;99.90
21387;DHT22;10854;45.922;6.716;2023-04-25T05:39:26;7.40;99.90
21387;DHT22;10854;45.922;6.716;2023-04-25T05:42:03;7.40;99.90
21387;DHT22;10854;45.922;6.716;2023-04-25T05:45:20;7.50;99.90
21387;DHT22;10854;45.922;6.716;2023-04-25T05:47:48;7.40;99.90
21387;DHT22;10854;45.922;6.716;2023-04-25T05:50:17;7.40;99.90
21387;DHT22;10854;45.922;6.716;2023-04-25T05:52:46;7.40;99.90
21387;DHT22;10854;45.922;6.716;2023-04-25T05:55:16;7.40;99.90
21387;DHT22;10854;45.922;6.716;2023-04-25T05:58:07;7.40;99.90
21387;DHT22;10854;45.922;6.716;2023-04-25T06:00:36;7.40;99.90
21387;DHT22;10854;45.922;6.716;2023-04-25T06:03:04;7.30;99.90
21387;DHT22;10854;45.922;6.716;2023-04-25T06:05:33;7.30;99.90
21387;DHT22;10854;45.922;6.716;2023-04-25T06:08:03;7.20;99.90
21387;DHT22;10854;45.922;6.716;2023-04-25T06:10:32;7.20;99.90
21387;DHT22;10854;45.922;6.716;2023-04-25T06:13:02;7.10;99.90
21387;DHT22;10854;45.922;6.716;2023-04-25T06:15:35;7.10;99.90
21387;DHT22;10854;45.922;6.716;2023-04-25T06:18:03;7.10;99.90
21387;DHT22;10854;45.922;6.716;2023-04-25T06:20:33;7.10;99.90
21387;DHT22;10854;45.922;6.716;2023-04-25T06:23:03;7.20;99.90
21387;DHT22;10854;45.922;6.716;2023-04-25T06:25:33;7.30;99.90
21387;DHT22;10854;45.922;6.716;2023-04-25T06:28:04;7.40;99.90
21387;DHT22;10854;45.922;6.716;2023-04-25T06:30:58;7.50;99.90
21387;DHT22;10854;45.922;6.716;2023-04-25T06:33:31;7.60;99.90
21387;DHT22;10854;45.922;6.716;2023-04-25T06:36:00;7.60;99.90
21387;DHT22;10854;45.922;6.716;2023-04-25T06:38:31;7.60;99.90
21387;DHT22;10854;45.922;6.716;2023-04-25T06:41:00;7.60;99.90
21387;DHT22;10854;45.922;6.716;2023-04-25T06:43:31;7.50;99.90
21387;DHT22;10854;45.922;6.716;2023-04-25T06:46:01;7.40;99.90
21387;DHT22;10854;45.922;6.716;2023-04-25T06:48:31;7.40;99.90
21387;DHT22;10854;45.922;6.716;2023-04-25T06:50:59;7.40;99.90
21387;DHT22;10854;45.922;6.716;2023-04-25T06:53:28;7.60;99.90
21387;DHT22;10854;45.922;6.716;2023-04-25T06:55:56;7.70;99.90
21387;DHT22;10854;45.922;6.716;2023-04-25T06:58:25;8.20;99.90
21387;DHT22;10854;45.922;6.716;2023-04-25T07:00:58;8.80;99.90
21387;DHT22;10854;45.922;6.716;2023-04-25T07:03:29;9.20;99.90
21387;DHT22;10854;45.922;6.716;2023-04-25T07:06:02;9.40;99.90
21387;DHT22;10854;45.922;6.716;2023-04-25T07:08:33;9.50;99.90
21387;DHT22;10854;45.922;6.716;2023-04-25T07:11:02;9.60;99.90
21387;DHT22;10854;45.922;6.716;2023-04-25T07:13:30;9.50;99.90
21387;DHT22;10854;45.922;6.716;2023-04-25T07:16:02;9.30;99.90
21387;DHT22;10854;45.922;6.716;2023-04-25T07:18:31;9.20;99.90
21387;DHT22;10854;45.922;6.716;2023-04-25T07:21:01;9.20;99.90
21387;DHT22;10854;45.922;6.716;2023-04-25T07:23:29;9.30;99.90
21387;DHT22;10854;45.922;6.716;2023-04-25T07:26:00;9.50;99.90
21387;DHT22;10854;45.922;6.716;2023-04-25T07:28:28;9.60;99.90
21387;DHT22;10854;45.922;6.716;2023-04-25T07:30:56;9.60;99.90
21387;DHT22;10854;45.922;6.716;2023-04-25T07:33:26;9.50;99.90
21387;DHT22;10854;45.922;6.716;2023-04-25T07:35:56;9.40;99.90
21387;DHT22;10854;45.922;6.716;2023-04-25T07:38:48;9.30;99.90
21387;DHT22;10854;45.922;6.716;2023-04-25T07:41:16;9.10;99.90
21387;DHT22;10854;45.922;6.716;2023-04-25T07:44:10;8.90;99.90
21387;DHT22;10854;45.922;6.716;2023-04-25T07:46:41;8.80;99.90
21387;DHT22;10854;45.922;6.716;2023-04-25T07:49:10;8.70;99.90
21387;DHT22;10854;45.922;6.716;2023-04-25T07:51:39;8.70;99.90
21387;DHT22;10854;45.922;6.716;2023-04-25T07:54:07;8.70;99.90
21387;DHT22;10854;45.922;6.716;2023-04-25T07:56:36;8.60;99.90
21387;DHT22;10854;45.922;6.716;2023-04-25T07:59:08;8.50;99.90
21387;DHT22;10854;45.922;6.716;2023-04-25T08:01:36;8.40;99.90
21387;DHT22;10854;45.922;6.716;2023-04-25T08:04:05;8.30;99.90
21387;DHT22;10854;45.922;6.716;2023-04-25T08:06:33;8.30;99.90
21387;DHT22;10854;45.922;6.716;2023-04-25T08:09:02;8.40;99.90
21387;DHT22;10854;45.922;6.716;2023-04-25T08:11:35;8.60;99.90
21387;DHT22;10854;45.922;6.716;2023-04-25T08:14:05;8.80;99.90
21387;DHT22;10854;45.922;6.716;2023-04-25T08:16:34;8.90;99.90
21387;DHT22;10854;45.922;6.716;2023-04-25T08:19:03;9.00;99.90
21387;DHT22;10854;45.922;6.716;2023-04-25T08:21:32;9.00;99.90
21387;DHT22;10854;45.922;6.716;2023-04-25T08:24:01;9.00;99.90
21387;DHT22;10854;45.922;6.716;2023-04-25T08:26:30;9.10;99.90
21387;DHT22;10854;45.922;6.716;2023-04-25T08:28:58;9.40;99.90
21387;DHT22;10854;45.922;6.716;2023-04-25T08:31:29;9.50;99.90
21387;DHT22;10854;45.922;6.716;2023-04-25T08:33:58;10.00;99.90
21387;DHT22;10854;45.922;6.716;2023-04-25T08:36:26;10.50;99.90
21387;DHT22;10854;45.922;6.716;2023-04-25T08:38:58;10.70;99.90
21387;DHT22;10854;45.922;6.716;2023-04-25T08:41:28;10.80;99.90
21387;DHT22;10854;45.922;6.716;2023-04-25T08:43:58;10.80;99.90
21387;DHT22;10854;45.922;6.716;2023-04-25T08:46:28;10.70;99.90
21387;DHT22;10854;45.922;6.716;2023-04-25T08:49:02;10.50;99.90
21387;DHT22;10854;45.922;6.716;2023-04-25T08:51:32;10.40;99.90
21387;DHT22;10854;45.922;6.716;2023-04-25T08:54:24;10.20;99.90
21387;DHT22;10854;45.922;6.716;2023-04-25T08:57:02;10.00;99.90
21387;DHT22;10854;45.922;6.716;2023-04-25T08:59:32;9.80;99.90
21387;DHT22;10854;45.922;6.716;2023-04-25T09:02:03;9.70;99.90
21387;DHT22;10854;45.922;6.716;2023-04-25T09:04:32;9.60;99.90
21387;DHT22;10854;45.922;6.716;2023-04-25T09:07:02;9.60;99.90
21387;DHT22;10854;45.922;6.716;2023-04-25T09:09:31;9.60;99.90
21387;DHT22;10854;45.922;6.716;2023-04-25T09:12:00;9.50;99.90
21387;DHT22;10854;45.922;6.716;2023-04-25T09:14:30;9.50;99.90
21387;DHT22;10854;45.922;6.716;2023-04-25T09:17:01;9.40;99.90
21387;DHT22;10854;45.922;6.716;2023-04-25T09:19:33;9.40;99.90
21387;DHT22;10854;45.922;6.716;2023-04-25T09:22:07;9.40;99.90
21387;DHT22;10854;45.922;6.716;2023-04-25T09:24:42;9.50;99.90
21387;DHT22;10854;45.922;6.716;2023-04-25T09:27:19;9.50;99.90
21387;DHT22;10854;45.922;6.716;2023-04-25T09:29:59;9.60;99.90
21387;DHT22;10854;45.922;6.716;2023-04-25T09:32:31;9.70;99.90
21387;DHT22;10854;45.922;6.716;2023-04-25T09:35:00;9.90;99.90
21387;DHT22;10854;45.922;6.716;2023-04-25T09:37:30;10.10;99.90
21387;DHT22;10854;45.922;6.716;2023-04-25T09:40:05;10.50;99.90
21387;DHT22;10854;45.922;6.716;2023-04-25T09:42:41;11.20;99.90
21387;DHT22;10854;45.922;6.716;2023-04-25T09:45:14;12.20;99.90
21387;DHT22;10854;45.922;6.716;2023-04-25T09:47:43;12.90;99.90
21387;DHT22;10854;45.922;6.716;2023-04-25T09:50:17;13.40;99.90
21387;DHT22;10854;45.922;6.716;2023-04-25T09:53:05;13.70;99.90
21387;DHT22;10854;45.922;6.716;2023-04-25T09:55:36;13.70;99.70
21387;DHT22;10854;45.922;6.716;2023-04-25T09:58:06;13.50;98.40
21387;DHT22;10854;45.922;6.716;2023-04-25T10:01:00;13.30;98.10
21387;DHT22;10854;45.922;6.716;2023-04-25T10:03:33;13.10;98.00
21387;DHT22;10854;45.922;6.716;2023-04-25T10:06:07;13.00;96.40
21387;DHT22;10854;45.922;6.716;2023-04-25T10:08:37;12.80;94.50
21387;DHT22;10854;45.922;6.716;2023-04-25T10:11:15;12.70;94.80
21387;DHT22;10854;45.922;6.716;2023-04-25T10:13:46;12.80;95.20
21387;DHT22;10854;45.922;6.716;2023-04-25T10:16:17;12.80;94.40
21387;DHT22;10854;45.922;6.716;2023-04-25T10:18:48;12.90;93.90
21387;DHT22;10854;45.922;6.716;2023-04-25T10:21:21;13.00;93.50
21387;DHT22;10854;45.922;6.716;2023-04-25T10:23:52;13.00;91.40
21387;DHT22;10854;45.922;6.716;2023-04-25T10:26:20;13.20;91.20
21387;DHT22;10854;45.922;6.716;2023-04-25T10:28:57;13.50;90.00
21387;DHT22;10854;45.922;6.716;2023-04-25T10:31:26;13.90;88.60
21387;DHT22;10854;45.922;6.716;2023-04-25T10:34:00;14.70;88.30
21387;DHT22;10854;45.922;6.716;2023-04-25T10:36:32;15.80;84.80
21387;DHT22;10854;45.922;6.716;2023-04-25T10:39:05;16.70;73.80
21387;DHT22;10854;45.922;6.716;2023-04-25T10:41:48;17.40;69.90
21387;DHT22;10854;45.922;6.716;2023-04-25T10:44:26;17.70;63.10
21387;DHT22;10854;45.922;6.716;2023-04-25T10:47:03;18.00;62.10
21387;DHT22;10854;45.922;6.716;2023-04-25T10:49:43;18.30;60.00
21387;DHT22;10854;45.922;6.716;2023-04-25T10:52:18;18.80;62.00
21387;DHT22;10854;45.922;6.716;2023-04-25T10:57:30;19.10;60.00
21387;DHT22;10854;45.922;6.716;2023-04-25T11:00:06;18.80;57.50
21387;DHT22;10854;45.922;6.716;2023-04-25T11:02:41;18.40;57.70
21387;DHT22;10854;45.922;6.716;2023-04-25T11:05:35;18.30;58.60
21387;DHT22;10854;45.922;6.716;2023-04-25T11:08:13;18.30;57.90
21387;DHT22;10854;45.922;6.716;2023-04-25T11:10:47;18.30;58.20
21387;DHT22;10854;45.922;6.716;2023-04-25T11:13:20;18.20;59.50
21387;DHT22;10854;45.922;6.716;2023-04-25T11:15:52;18.30;59.90
21387;DHT22;10854;45.922;6.716;2023-04-25T11:18:25;18.30;59.60
21387;DHT22;10854;45.922;6.716;2023-04-25T11:20:54;18.10;57.90
21387;DHT22;10854;45.922;6.716;2023-04-25T11:23:23;18.00;58.60
21387;DHT22;10854;45.922;6.716;2023-04-25T11:25:51;18.30;58.40
21387;DHT22;10854;45.922;6.716;2023-04-25T11:28:23;18.50;56.50
21387;DHT22;10854;45.922;6.716;2023-04-25T11:30:52;18.50;55.10
21387;DHT22;10854;45.922;6.716;2023-04-25T11:33:26;18.70;56.00
21387;DHT22;10854;45.922;6.716;2023-04-25T11:35:58;19.10;56.20
21387;DHT22;10854;45.922;6.716;2023-04-25T11:38:27;19.30;54.50
21387;DHT22;10854;45.922;6.716;2023-04-25T11:40:56;19.60;54.90
21387;DHT22;10854;45.922;6.716;2023-04-25T11:43:26;19.90;55.20
21387;DHT22;10854;45.922;6.716;2023-04-25T11:45:54;20.10;54.60
21387;DHT22;10854;45.922;6.716;2023-04-25T11:48:23;20.00;53.00
21387;DHT22;10854;45.922;6.716;2023-04-25T11:50:51;19.50;53.30
21387;DHT22;10854;45.922;6.716;2023-04-25T11:53:22;19.20;54.50
21387;DHT22;10854;45.922;6.716;2023-04-25T11:55:52;18.90;54.90
21387;DHT22;10854;45.922;6.716;2023-04-25T11:58:21;18.70;55.50
21387;DHT22;10854;45.922;6.716;2023-04-25T12:00:51;18.60;55.80
21387;DHT22;10854;45.922;6.716;2023-04-25T12:03:20;18.60;55.60
21387;DHT22;10854;45.922;6.716;2023-04-25T12:06:02;18.60;55.70
21387;DHT22;10854;45.922;6.716;2023-04-25T12:08:33;19.00;55.10
21387;DHT22;10854;45.922;6.716;2023-04-25T12:11:02;19.40;54.80
21387;DHT22;10854;45.922;6.716;2023-04-25T12:13:31;19.90;53.30
21387;DHT22;10854;45.922;6.716;2023-04-25T12:16:00;20.30;52.00
21387;DHT22;10854;45.922;6.716;2023-04-25T12:18:30;20.60;50.00
21387;DHT22;10854;45.922;6.716;2023-04-25T12:20:59;20.80;48.80
21387;DHT22;10854;45.922;6.716;2023-04-25T12:23:29;20.90;47.90
21387;DHT22;10854;45.922;6.716;2023-04-25T12:25:59;21.00;46.40
21387;DHT22;10854;45.922;6.716;2023-04-25T12:28:32;20.80;45.50
21387;DHT22;10854;45.922;6.716;2023-04-25T12:31:03;21.10;46.00
21387;DHT22;10854;45.922;6.716;2023-04-25T12:33:33;21.80;47.40
21387;DHT22;10854;45.922;6.716;2023-04-25T12:36:04;22.40;47.20
21387;DHT22;10854;45.922;6.716;2023-04-25T12:38:39;22.50;46.00
21387;DHT22;10854;45.922;6.716;2023-04-25T12:41:08;22.50;46.30
21387;DHT22;10854;45.922;6.716;2023-04-25T12:43:38;22.40;46.00
21387;DHT22;10854;45.922;6.716;2023-04-25T12:46:07;22.10;44.60
21387;DHT22;10854;45.922;6.716;2023-04-25T12:48:36;22.00;45.30
21387;DHT22;10854;45.922;6.716;2023-04-25T12:51:06;22.00;45.40
21387;DHT22;10854;45.922;6.716;2023-04-25T12:53:34;22.00;45.70
21387;DHT22;10854;45.922;6.716;2023-04-25T12:56:05;22.20;45.50
21387;DHT22;10854;45.922;6.716;2023-04-25T12:58:34;22.00;44.50
21387;DHT22;10854;45.922;6.716;2023-04-25T13:01:03;21.80;44.60
21387;DHT22;10854;45.922;6.716;2023-04-25T13:03:31;21.60;45.00
21387;DHT22;10854;45.922;6.716;2023-04-25T13:06:00;21.80;45.50
21387;DHT22;10854;45.922;6.716;2023-04-25T13:08:30;21.90;44.50
21387;DHT22;10854;45.922;6.716;2023-04-25T13:10:58;22.10;44.90
21387;DHT22;10854;45.922;6.716;2023-04-25T13:13:26;22.30;44.70
21387;DHT22;10854;45.922;6.716;2023-04-25T13:15:55;22.30;44.70
21387;DHT22;10854;45.922;6.716;2023-04-25T13:18:23;22.30;44.80
21387;DHT22;10854;45.922;6.716;2023-04-25T13:20:55;22.20;44.50
21387;DHT22;10854;45.922;6.716;2023-04-25T13:23:25;22.50;44.90
21387;DHT22;10854;45.922;6.716;2023-04-25T13:25:54;22.80;43.80
21387;DHT22;10854;45.922;6.716;2023-04-25T13:28:24;23.00;42.60
21387;DHT22;10854;45.922;6.716;2023-04-25T13:30:53;23.00;42.30
21387;DHT22;10854;45.922;6.716;2023-04-25T13:33:22;23.00;42.60
21387;DHT22;10854;45.922;6.716;2023-04-25T13:35:54;23.00;42.20
21387;DHT22;10854;45.922;6.716;2023-04-25T13:38:25;23.00;42.40
21387;DHT22;10854;45.922;6.716;2023-04-25T13:40:55;23.00;41.80
21387;DHT22;10854;45.922;6.716;2023-04-25T13:43:23;22.90;42.40
21387;DHT22;10854;45.922;6.716;2023-04-25T13:45:52;23.00;42.20
21387;DHT22;10854;45.922;6.716;2023-04-25T13:48:20;23.10;42.40
21387;DHT22;10854;45.922;6.716;2023-04-25T13:50:50;23.40;42.50
21387;DHT22;10854;45.922;6.716;2023-04-25T13:53:18;23.60;40.70
21387;DHT22;10854;45.922;6.716;2023-04-25T13:55:47;23.40;39.70
21387;DHT22;10854;45.922;6.716;2023-04-25T13:58:16;23.50;40.00
21387;DHT22;10854;45.922;6.716;2023-04-25T14:00:45;23.30;36.70
21387;DHT22;10854;45.922;6.716;2023-04-25T14:03:14;23.20;38.30
21387;DHT22;10854;45.922;6.716;2023-04-25T14:05:43;23.10;39.00
21387;DHT22;10854;45.922;6.716;2023-04-25T14:08:11;23.10;40.00
21387;DHT22;10854;45.922;6.716;2023-04-25T14:10:40;23.40;40.00
21387;DHT22;10854;45.922;6.716;2023-04-25T14:13:10;23.50;38.30
21387;DHT22;10854;45.922;6.716;2023-04-25T14:15:38;23.00;38.30
21387;DHT22;10854;45.922;6.716;2023-04-25T14:18:10;23.00;39.60
21387;DHT22;10854;45.922;6.716;2023-04-25T14:20:40;23.40;40.30
21387;DHT22;10854;45.922;6.716;2023-04-25T14:23:10;23.90;40.20
21387;DHT22;10854;45.922;6.716;2023-04-25T14:25:39;24.40;40.50
21387;DHT22;10854;45.922;6.716;2023-04-25T14:28:10;24.80;39.70
21387;DHT22;10854;45.922;6.716;2023-04-25T14:30:38;25.00;39.30
21387;DHT22;10854;45.922;6.716;2023-04-25T14:33:07;24.90;38.50
21387;DHT22;10854;45.922;6.716;2023-04-25T14:35:35;24.40;38.40
21387;DHT22;10854;45.922;6.716;2023-04-25T14:38:04;24.00;38.70
21387;DHT22;10854;45.922;6.716;2023-04-25T14:40:33;23.60;38.90
21387;DHT22;10854;45.922;6.716;2023-04-25T14:43:03;23.30;39.60
21387;DHT22;10854;45.922;6.716;2023-04-25T14:45:31;23.20;40.10
21387;DHT22;10854;45.922;6.716;2023-04-25T14:48:01;22.90;40.50
21387;DHT22;10854;45.922;6.716;2023-04-25T14:50:30;22.60;40.90
21387;DHT22;10854;45.922;6.716;2023-04-25T14:52:59;22.30;40.60
21387;DHT22;10854;45.922;6.716;2023-04-25T14:55:29;22.10;39.60
21387;DHT22;10854;45.922;6.716;2023-04-25T14:57:57;21.50;37.60
21387;DHT22;10854;45.922;6.716;2023-04-25T15:00:25;20.70;38.70
21387;DHT22;10854;45.922;6.716;2023-04-25T15:02:55;20.00;39.20
21387;DHT22;10854;45.922;6.716;2023-04-25T15:05:25;19.80;40.80
21387;DHT22;10854;45.922;6.716;2023-04-25T15:07:53;20.00;42.20
21387;DHT22;10854;45.922;6.716;2023-04-25T15:10:22;20.40;42.40
21387;DHT22;10854;45.922;6.716;2023-04-25T15:12:50;20.90;43.60
21387;DHT22;10854;45.922;6.716;2023-04-25T15:15:21;21.50;43.60
21387;DHT22;10854;45.922;6.716;2023-04-25T15:17:53;21.80;43.50
21387;DHT22;10854;45.922;6.716;2023-04-25T15:20:24;22.20;43.40
21387;DHT22;10854;45.922;6.716;2023-04-25T15:22:52;22.50;42.90
21387;DHT22;10854;45.922;6.716;2023-04-25T15:25:24;22.70;42.40
21387;DHT22;10854;45.922;6.716;2023-04-25T15:27:53;22.60;41.50
21387;DHT22;10854;45.922;6.716;2023-04-25T15:30:24;22.30;41.70
21387;DHT22;10854;45.922;6.716;2023-04-25T15:32:52;22.10;41.90
21387;DHT22;10854;45.922;6.716;2023-04-25T15:35:23;22.00;41.80
21387;DHT22;10854;45.922;6.716;2023-04-25T15:37:52;21.80;40.90
21387;DHT22;10854;45.922;6.716;2023-04-25T15:40:20;21.60;40.50
21387;DHT22;10854;45.922;6.716;2023-04-25T15:42:50;21.30;41.20
21387;DHT22;10854;45.922;6.716;2023-04-25T15:45:21;21.00;41.60
21387;DHT22;10854;45.922;6.716;2023-04-25T15:47:51;20.70;41.70
21387;DHT22;10854;45.922;6.716;2023-04-25T15:50:20;20.40;42.30
21387;DHT22;10854;45.922;6.716;2023-04-25T15:52:49;20.00;43.50
21387;DHT22;10854;45.922;6.716;2023-04-25T15:55:19;19.70;43.20
21387;DHT22;10854;45.922;6.716;2023-04-25T15:57:50;19.70;43.80
21387;DHT22;10854;45.922;6.716;2023-04-25T16:00:19;19.70;43.40
21387;DHT22;10854;45.922;6.716;2023-04-25T16:02:49;19.70;44.20
21387;DHT22;10854;45.922;6.716;2023-04-25T16:05:18;19.70;43.40